sensor_id;sensor_type;location;lat;lon;timestamp;pressure;altitude;pressure_sealevel;temperature;humidity
41513;BME280;27244;59.940;30.280;2023-05-29T00:01:58;101329.97;;;22.40;31.76
41513;BME280;27244;59.940;30.280;2023-05-29T00:04:26;101327.59;;;22.38;31.81
41513;BME280;27244;59.940;30.280;2023-05-29T00:06:53;101330.81;;;22.37;31.83
41513;BME280;27244;59.940;30.280;2023-05-29T00:09:21;101320.00;;;22.35;31.99
41513;BME280;27244;59.940;30.280;2023-05-29T00:11:50;101330.44;;;22.35;31.71
41513;BME280;27244;59.940;30.280;2023-05-29T00:14:18;101330.44;;;22.35;31.68
41513;BME280;27244;59.940;30.280;2023-05-29T00:16:45;101317.25;;;22.32;30.82
41513;BME280;27244;59.940;30.280;2023-05-29T00:19:14;101324.44;;;22.33;30.68
41513;BME280;27244;59.940;30.280;2023-05-29T00:21:43;101326.03;;;22.34;31.40
41513;BME280;27244;59.940;30.280;2023-05-29T00:24:13;101321.25;;;22.31;31.22
41513;BME280;27244;59.940;30.280;2023-05-29T00:26:40;101322.06;;;22.31;31.53
41513;BME280;27244;59.940;30.280;2023-05-29T00:29:07;101325.69;;;22.32;31.68
41513;BME280;27244;59.940;30.280;2023-05-29T00:31:35;101323.63;;;22.32;31.62
41513;BME280;27244;59.940;30.280;2023-05-29T00:34:04;101317.25;;;22.32;31.80
41513;BME280;27244;59.940;30.280;2023-05-29T00:36:33;101323.63;;;22.32;31.69
41513;BME280;27244;59.940;30.280;2023-05-29T00:39:02;101331.66;;;22.34;31.80
41513;BME280;27244;59.940;30.280;2023-05-29T00:41:29;101322.94;;;22.25;31.86
41513;BME280;27244;59.940;30.280;2023-05-29T00:43:56;101332.06;;;22.32;31.87
41513;BME280;27244;59.940;30.280;2023-05-29T00:46:23;101331.69;;;22.30;31.64
41513;BME280;27244;59.940;30.280;2023-05-29T00:48:52;101335.69;;;22.33;31.67
41513;BME280;27244;59.940;30.280;2023-05-29T00:51:20;101332.50;;;22.31;31.83
41513;BME280;27244;59.940;30.280;2023-05-29T00:53:48;101328.47;;;22.32;31.88
41513;BME280;27244;59.940;30.280;2023-05-29T00:56:17;101330.06;;;22.33;31.82
41513;BME280;27244;59.940;30.280;2023-05-29T00:58:46;101321.25;;;22.31;31.93
41513;BME280;27244;59.940;30.280;2023-05-29T01:01:17;101332.47;;;22.34;31.80
41513;BME280;27244;59.940;30.280;2023-05-29T01:03:45;101331.28;;;22.32;32.12
41513;BME280;27244;59.940;30.280;2023-05-29T01:06:14;101328.91;;;22.30;31.90
41513;BME280;27244;59.940;30.280;2023-05-29T01:08:43;101330.09;;;22.29;31.93
41513;BME280;27244;59.940;30.280;2023-05-29T01:11:19;101320.41;;;22.34;31.80
41513;BME280;27244;59.940;30.280;2023-05-29T01:13:49;101325.28;;;22.30;31.94
41513;BME280;27244;59.940;30.280;2023-05-29T01:16:22;101322.03;;;22.35;31.56
41513;BME280;27244;59.940;30.280;2023-05-29T01:18:55;101316.84;;;22.30;31.62
41513;BME280;27244;59.940;30.280;2023-05-29T01:21:45;101326.44;;;22.32;31.30
41513;BME280;27244;59.940;30.280;2023-05-29T01:24:19;101332.06;;;22.32;31.47
41513;BME280;27244;59.940;30.280;2023-05-29T01:34:16;101326.03;;;22.34;31.89
41513;BME280;27244;59.940;30.280;2023-05-29T01:36:43;101325.72;;;22.28;31.77
41513;BME280;27244;59.940;30.280;2023-05-29T01:39:12;101320.13;;;22.25;31.71
41513;BME280;27244;59.940;30.280;2023-05-29T01:41:40;101317.69;;;22.27;31.71
41513;BME280;27244;59.940;30.280;2023-05-29T01:44:08;101317.31;;;22.25;31.69
41513;BME280;27244;59.940;30.280;2023-05-29T01:46:37;101322.16;;;22.24;31.88
41513;BME280;27244;59.940;30.280;2023-05-29T01:49:08;101328.53;;;22.25;31.69
41513;BME280;27244;59.940;30.280;2023-05-29T01:51:37;101331.75;;;22.27;31.74
41513;BME280;27244;59.940;30.280;2023-05-29T01:54:04;101328.53;;;22.25;31.49
41513;BME280;27244;59.940;30.280;2023-05-29T01:56:31;101326.97;;;22.24;31.73
41513;BME280;27244;59.940;30.280;2023-05-29T01:59:01;101333.75;;;22.26;31.51
41513;BME280;27244;59.940;30.280;2023-05-29T02:01:31;101338.22;;;22.24;31.57
41513;BME280;27244;59.940;30.280;2023-05-29T02:03:58;101334.59;;;22.23;31.57
41513;BME280;27244;59.940;30.280;2023-05-29T02:06:25;101339.84;;;22.21;31.78
41513;BME280;27244;59.940;30.280;2023-05-29T02:08:54;101345.41;;;22.25;31.83
41513;BME280;27244;59.940;30.280;2023-05-29T02:11:20;101340.63;;;22.22;31.55
41513;BME280;27244;59.940;30.280;2023-05-29T02:13:47;101339.41;;;22.23;32.05
41513;BME280;27244;59.940;30.280;2023-05-29T02:16:19;101339.06;;;22.21;31.81
41513;BME280;27244;59.940;30.280;2023-05-29T02:18:46;101341.88;;;22.21;31.97
41513;BME280;27244;59.940;30.280;2023-05-29T02:21:13;101332.63;;;22.20;32.14
41513;BME280;27244;59.940;30.280;2023-05-29T02:23:40;101326.56;;;22.22;32.25
41513;BME280;27244;59.940;30.280;2023-05-29T02:26:09;101338.25;;;22.20;32.40
41513;BME280;27244;59.940;30.280;2023-05-29T02:28:38;101339.41;;;22.23;32.23
41513;BME280;27244;59.940;30.280;2023-05-29T02:31:05;101338.25;;;22.20;32.18
41513;BME280;27244;59.940;30.280;2023-05-29T02:33:32;101346.25;;;22.22;32.40
41513;BME280;27244;59.940;30.280;2023-05-29T02:35:59;101347.50;;;22.21;32.42
41513;BME280;27244;59.940;30.280;2023-05-29T02:38:26;101351.50;;;22.20;32.11
41513;BME280;27244;59.940;30.280;2023-05-29T02:40:53;101347.09;;;22.19;32.50
41513;BME280;27244;59.940;30.280;2023-05-29T02:43:24;101354.22;;;22.27;32.60
41513;BME280;27244;59.940;30.280;2023-05-29T02:45:51;101351.06;;;22.21;32.58
41513;BME280;27244;59.940;30.280;2023-05-29T02:48:18;101347.09;;;22.19;32.65
41513;BME280;27244;59.940;30.280;2023-05-29T02:50:45;101345.09;;;22.19;32.66
41513;BME280;27244;59.940;30.280;2023-05-29T02:53:12;101354.31;;;22.20;32.93
41513;BME280;27244;59.940;30.280;2023-05-29T02:55:39;101348.69;;;22.20;33.09
41513;BME280;27244;59.940;30.280;2023-05-29T02:58:13;101351.81;;;22.25;33.19
41513;BME280;27244;59.940;30.280;2023-05-29T03:00:43;101341.91;;;22.17;33.44
41513;BME280;27244;59.940;30.280;2023-05-29T03:03:10;101347.91;;;22.19;33.79
41513;BME280;27244;59.940;30.280;2023-05-29T03:05:38;101339.88;;;22.18;33.24
41513;BME280;27244;59.940;30.280;2023-05-29T03:08:05;101337.88;;;22.18;33.84
41513;BME280;27244;59.940;30.280;2023-05-29T03:10:32;101340.66;;;22.18;33.66
41513;BME280;27244;59.940;30.280;2023-05-29T03:12:59;101349.91;;;22.19;33.90
41513;BME280;27244;59.940;30.280;2023-05-29T03:15:27;101337.91;;;22.15;34.14
41513;BME280;27244;59.940;30.280;2023-05-29T03:17:55;101355.13;;;22.20;34.48
41513;BME280;27244;59.940;30.280;2023-05-29T03:20:26;101346.69;;;22.20;34.24
41513;BME280;27244;59.940;30.280;2023-05-29T03:22:56;101337.47;;;22.20;34.18
41513;BME280;27244;59.940;30.280;2023-05-29T03:25:23;101345.09;;;22.19;34.38
41513;BME280;27244;59.940;30.280;2023-05-29T03:27:50;101340.25;;;22.20;34.16
41513;BME280;27244;59.940;30.280;2023-05-29T03:30:19;101339.47;;;22.19;34.80
41513;BME280;27244;59.940;30.280;2023-05-29T03:32:47;101331.84;;;22.20;34.56
41513;BME280;27244;59.940;30.280;2023-05-29T03:35:15;101340.25;;;22.20;34.83
41513;BME280;27244;59.940;30.280;2023-05-29T03:37:43;101333.47;;;22.17;34.77
41513;BME280;27244;59.940;30.280;2023-05-29T03:40:12;101344.28;;;22.19;34.62
41513;BME280;27244;59.940;30.280;2023-05-29T03:42:44;101338.31;;;22.17;35.07
41513;BME280;27244;59.940;30.280;2023-05-29T03:45:13;101347.91;;;22.19;35.23
41513;BME280;27244;59.940;30.280;2023-05-29T03:47:41;101345.88;;;22.20;35.49
41513;BME280;27244;59.940;30.280;2023-05-29T03:50:08;101350.34;;;22.17;35.66
41513;BME280;27244;59.940;30.280;2023-05-29T03:52:37;101353.09;;;22.21;35.75
41513;BME280;27244;59.940;30.280;2023-05-29T03:55:08;101349.50;;;22.20;35.66
41513;BME280;27244;59.940;30.280;2023-05-29T03:57:39;101348.69;;;22.20;35.60
41513;BME280;27244;59.940;30.280;2023-05-29T04:00:12;101346.22;;;22.25;35.24
41513;BME280;27244;59.940;30.280;2023-05-29T04:02:40;101347.91;;;22.19;35.78
41513;BME280;27244;59.940;30.280;2023-05-29T04:05:08;101345.50;;;22.18;35.80
41513;BME280;27244;59.940;30.280;2023-05-29T04:07:36;101359.09;;;22.23;35.52
41513;BME280;27244;59.940;30.280;2023-05-29T04:10:04;101346.69;;;22.20;35.25
41513;BME280;27244;59.940;30.280;2023-05-29T04:12:34;101351.13;;;22.18;35.90
41513;BME280;27244;59.940;30.280;2023-05-29T04:15:03;101355.91;;;22.21;35.86
41513;BME280;27244;59.940;30.280;2023-05-29T04:17:31;101358.72;;;22.21;36.07
41513;BME280;27244;59.940;30.280;2023-05-29T04:19:57;101354.31;;;22.20;35.96
41513;BME280;27244;59.940;30.280;2023-05-29T04:22:25;101357.94;;;22.20;36.17
41513;BME280;27244;59.940;30.280;2023-05-29T04:24:53;101355.13;;;22.20;36.57
41513;BME280;27244;59.940;30.280;2023-05-29T04:27:20;101356.69;;;22.21;36.45
41513;BME280;27244;59.940;30.280;2023-05-29T04:32:26;101367.53;;;22.23;36.91
41513;BME280;27244;59.940;30.280;2023-05-29T04:34:54;101365.13;;;22.21;37.10
41513;BME280;27244;59.940;30.280;2023-05-29T04:37:21;101371.53;;;22.22;37.10
41513;BME280;27244;59.940;30.280;2023-05-29T04:39:57;101366.38;;;22.20;37.37
41513;BME280;27244;59.940;30.280;2023-05-29T04:42:26;101359.97;;;22.16;37.57
41513;BME280;27244;59.940;30.280;2023-05-29T04:44:53;101371.53;;;22.22;37.82
41513;BME280;27244;59.940;30.280;2023-05-29T04:47:22;101363.16;;;22.18;37.87
41513;BME280;27244;59.940;30.280;2023-05-29T04:49:51;101378.75;;;22.23;37.73
41513;BME280;27244;59.940;30.280;2023-05-29T04:52:19;101380.78;;;22.22;37.32
41513;BME280;27244;59.940;30.280;2023-05-29T04:54:46;101380.78;;;22.22;37.19
41513;BME280;27244;59.940;30.280;2023-05-29T04:57:16;101377.56;;;22.24;36.65
41513;BME280;27244;59.940;30.280;2023-05-29T04:59:43;101377.56;;;22.24;36.88
41513;BME280;27244;59.940;30.280;2023-05-29T05:02:11;101369.13;;;22.24;37.24
41513;BME280;27244;59.940;30.280;2023-05-29T05:04:38;101380.38;;;22.24;37.03
41513;BME280;27244;59.940;30.280;2023-05-29T05:07:05;101373.50;;;22.25;36.71
41513;BME280;27244;59.940;30.280;2023-05-29T05:09:33;101373.50;;;22.25;36.90
41513;BME280;27244;59.940;30.280;2023-05-29T05:12:02;101380.38;;;22.24;36.97
41513;BME280;27244;59.940;30.280;2023-05-29T05:14:30;101380.72;;;22.26;36.75
41513;BME280;27244;59.940;30.280;2023-05-29T05:16:57;101373.50;;;22.25;36.75
41513;BME280;27244;59.940;30.280;2023-05-29T05:19:26;101378.34;;;22.24;37.10
41513;BME280;27244;59.940;30.280;2023-05-29T05:21:53;101384.34;;;22.26;37.09
41513;BME280;27244;59.940;30.280;2023-05-29T05:24:22;101381.94;;;22.25;36.90
41513;BME280;27244;59.940;30.280;2023-05-29T05:26:49;101379.13;;;22.25;36.99
41513;BME280;27244;59.940;30.280;2023-05-29T05:29:18;101387.19;;;22.23;37.05
41513;BME280;27244;59.940;30.280;2023-05-29T05:31:48;101390.38;;;22.25;37.19
41513;BME280;27244;59.940;30.280;2023-05-29T05:34:14;101390.38;;;22.25;37.23
41513;BME280;27244;59.940;30.280;2023-05-29T05:36:43;101383.97;;;22.24;38.21
41513;BME280;27244;59.940;30.280;2023-05-29T05:39:13;101372.31;;;22.26;38.53
41513;BME280;27244;59.940;30.280;2023-05-29T05:41:43;101385.50;;;22.29;37.86
41513;BME280;27244;59.940;30.280;2023-05-29T05:44:13;101387.13;;;22.30;38.18
41513;BME280;27244;59.940;30.280;2023-05-29T05:46:44;101389.53;;;22.31;38.47
41513;BME280;27244;59.940;30.280;2023-05-29T05:49:13;101390.31;;;22.32;38.49
41513;BME280;27244;59.940;30.280;2023-05-29T05:51:40;101386.28;;;22.33;38.07
41513;BME280;27244;59.940;30.280;2023-05-29T05:54:08;101388.72;;;22.31;38.58
41513;BME280;27244;59.940;30.280;2023-05-29T05:56:35;101377.47;;;22.31;39.38
41513;BME280;27244;59.940;30.280;2023-05-29T05:59:02;101383.91;;;22.31;38.33
41513;BME280;27244;59.940;30.280;2023-05-29T06:01:30;101384.69;;;22.32;38.79
41513;BME280;27244;59.940;30.280;2023-05-29T06:03:58;101385.91;;;22.31;38.67
41513;BME280;27244;59.940;30.280;2023-05-29T06:06:27;101385.47;;;22.32;38.67
41513;BME280;27244;59.940;30.280;2023-05-29T06:08:54;101386.72;;;22.31;38.77
41513;BME280;27244;59.940;30.280;2023-05-29T06:11:22;101379.06;;;22.32;38.94
41513;BME280;27244;59.940;30.280;2023-05-29T06:13:51;101377.47;;;22.31;38.68
41513;BME280;27244;59.940;30.280;2023-05-29T06:16:26;101383.91;;;22.31;39.17
41513;BME280;27244;59.940;30.280;2023-05-29T06:18:53;101384.69;;;22.32;39.45
41513;BME280;27244;59.940;30.280;2023-05-29T06:21:20;101367.88;;;22.28;38.99
41513;BME280;27244;59.940;30.280;2023-05-29T06:23:54;101382.63;;;22.36;38.84
41513;BME280;27244;59.940;30.280;2023-05-29T06:26:21;101386.66;;;22.35;38.83
41513;BME280;27244;59.940;30.280;2023-05-29T06:28:49;101382.63;;;22.36;39.12
41513;BME280;27244;59.940;30.280;2023-05-29T06:31:16;101389.84;;;22.37;39.57
41513;BME280;27244;59.940;30.280;2023-05-29T06:33:45;101384.22;;;22.37;39.54
41513;BME280;27244;59.940;30.280;2023-05-29T06:36:14;101387.84;;;22.37;39.26
41513;BME280;27244;59.940;30.280;2023-05-29T06:38:46;101389.38;;;22.42;40.64
41513;BME280;27244;59.940;30.280;2023-05-29T06:41:14;101387.03;;;22.37;40.73
41513;BME280;27244;59.940;30.280;2023-05-29T06:43:42;101379.84;;;22.32;39.93
41513;BME280;27244;59.940;30.280;2023-05-29T06:46:09;101391.84;;;22.36;39.58
41513;BME280;27244;59.940;30.280;2023-05-29T06:48:36;101395.47;;;22.37;39.73
41513;BME280;27244;59.940;30.280;2023-05-29T06:51:04;101392.66;;;22.37;39.68
41513;BME280;27244;59.940;30.280;2023-05-29T06:53:40;101403.50;;;22.38;39.29
41513;BME280;27244;59.940;30.280;2023-05-29T06:56:09;101391.50;;;22.34;38.96
41513;BME280;27244;59.940;30.280;2023-05-29T06:58:37;101403.06;;;22.40;39.33
41513;BME280;27244;59.940;30.280;2023-05-29T07:04:26;101395.84;;;22.39;39.32
41513;BME280;27244;59.940;30.280;2023-05-29T07:06:53;101395.84;;;22.39;39.20
41513;BME280;27244;59.940;30.280;2023-05-29T07:09:20;101399.47;;;22.36;39.50
41513;BME280;27244;59.940;30.280;2023-05-29T07:11:47;101397.06;;;22.38;39.50
41513;BME280;27244;59.940;30.280;2023-05-29T07:14:16;101401.44;;;22.42;39.90
41513;BME280;27244;59.940;30.280;2023-05-29T07:16:44;101406.25;;;22.42;39.38
41513;BME280;27244;59.940;30.280;2023-05-29T07:19:12;101405.47;;;22.41;39.67
41513;BME280;27244;59.940;30.280;2023-05-29T07:21:42;101409.81;;;22.46;39.45
41513;BME280;27244;59.940;30.280;2023-05-29T07:24:09;101411.41;;;22.47;38.93
41513;BME280;27244;59.940;30.280;2023-05-29T07:26:36;101408.19;;;22.48;38.30
41513;BME280;27244;59.940;30.280;2023-05-29T07:29:04;101416.56;;;22.52;38.49
41513;BME280;27244;59.940;30.280;2023-05-29T07:31:35;101400.56;;;22.49;38.19
41513;BME280;27244;59.940;30.280;2023-05-29T07:34:03;101414.88;;;22.58;38.99
41513;BME280;27244;59.940;30.280;2023-05-29T07:36:30;101416.47;;;22.59;39.73
41513;BME280;27244;59.940;30.280;2023-05-29T07:38:59;101422.09;;;22.59;40.21
41513;BME280;27244;59.940;30.280;2023-05-29T07:41:26;101412.81;;;22.62;40.66
41513;BME280;27244;59.940;30.280;2023-05-29T07:43:54;101416.03;;;22.64;42.21
41513;BME280;27244;59.940;30.280;2023-05-29T07:46:22;101420.41;;;22.65;42.79
41513;BME280;27244;59.940;30.280;2023-05-29T07:48:54;101426.03;;;22.69;43.80
41513;BME280;27244;59.940;30.280;2023-05-29T07:51:21;101428.03;;;22.72;44.40
41513;BME280;27244;59.940;30.280;2023-05-29T07:53:50;101426.78;;;22.73;44.87
41513;BME280;27244;59.940;30.280;2023-05-29T07:56:17;101427.16;;;22.75;45.57
41513;BME280;27244;59.940;30.280;2023-05-29T07:58:44;101432.34;;;22.76;45.60
41513;BME280;27244;59.940;30.280;2023-05-29T08:01:11;101429.94;;;22.78;45.58
41513;BME280;27244;59.940;30.280;2023-05-29T08:03:41;101430.31;;;22.80;44.97
41513;BME280;27244;59.940;30.280;2023-05-29T08:06:29;101427.50;;;22.80;45.90
41513;BME280;27244;59.940;30.280;2023-05-29T08:08:58;101430.69;;;22.82;46.38
41513;BME280;27244;59.940;30.280;2023-05-29T08:11:25;101439.13;;;22.82;45.71
41513;BME280;27244;59.940;30.280;2023-05-29T08:13:52;101439.13;;;22.82;45.39
41513;BME280;27244;59.940;30.280;2023-05-29T08:16:19;101427.44;;;22.84;45.51
41513;BME280;27244;59.940;30.280;2023-05-29T08:18:47;101433.88;;;22.84;44.47
41513;BME280;27244;59.940;30.280;2023-05-29T08:21:14;101427.03;;;22.85;44.07
41513;BME280;27244;59.940;30.280;2023-05-29T08:23:44;101428.66;;;22.83;43.09
41513;BME280;27244;59.940;30.280;2023-05-29T08:26:11;101431.84;;;22.85;42.49
41513;BME280;27244;59.940;30.280;2023-05-29T08:28:38;101425.44;;;22.84;43.03
41513;BME280;27244;59.940;30.280;2023-05-29T08:31:06;101424.25;;;22.82;43.87
41513;BME280;27244;59.940;30.280;2023-05-29T08:33:33;101435.06;;;22.83;42.30
41513;BME280;27244;59.940;30.280;2023-05-29T08:36:00;101431.47;;;22.83;42.21
41513;BME280;27244;59.940;30.280;2023-05-29T08:38:31;101429.41;;;22.87;42.78
41513;BME280;27244;59.940;30.280;2023-05-29T08:41:00;101437.47;;;22.85;42.21
41513;BME280;27244;59.940;30.280;2023-05-29T08:43:30;101440.25;;;22.88;42.84
41513;BME280;27244;59.940;30.280;2023-05-29T08:46:00;101439.44;;;22.88;42.00
41513;BME280;27244;59.940;30.280;2023-05-29T08:48:29;101437.84;;;22.87;43.05
41513;BME280;27244;59.940;30.280;2023-05-29T08:50:57;101430.66;;;22.86;42.45
41513;BME280;27244;59.940;30.280;2023-05-29T08:53:26;101433.88;;;22.84;42.97
41513;BME280;27244;59.940;30.280;2023-05-29T08:55:53;101430.66;;;22.86;42.58
41513;BME280;27244;59.940;30.280;2023-05-29T08:58:23;101440.66;;;22.87;41.99
41513;BME280;27244;59.940;30.280;2023-05-29T09:00:50;101436.28;;;22.86;42.62
41513;BME280;27244;59.940;30.280;2023-05-29T09:03:17;101429.41;;;22.87;42.71
41513;BME280;27244;59.940;30.280;2023-05-29T09:05:48;101422.97;;;22.86;42.03
41513;BME280;27244;59.940;30.280;2023-05-29T09:08:15;101425.78;;;22.86;42.74
41513;BME280;27244;59.940;30.280;2023-05-29T09:10:43;101426.22;;;22.85;42.76
41513;BME280;27244;59.940;30.280;2023-05-29T09:13:11;101434.22;;;22.86;42.98
41513;BME280;27244;59.940;30.280;2023-05-29T09:15:40;101441.09;;;22.85;42.92
41513;BME280;27244;59.940;30.280;2023-05-29T09:18:09;101439.09;;;22.86;43.13
41513;BME280;27244;59.940;30.280;2023-05-29T09:20:36;101445.13;;;22.84;42.96
41513;BME280;27244;59.940;30.280;2023-05-29T09:23:05;101438.66;;;22.87;42.31
41513;BME280;27244;59.940;30.280;2023-05-29T09:25:34;101435.47;;;22.85;42.74
41513;BME280;27244;59.940;30.280;2023-05-29T09:28:03;101435.47;;;22.85;43.14
41513;BME280;27244;59.940;30.280;2023-05-29T09:34:13;101435.41;;;22.89;42.64
41513;BME280;27244;59.940;30.280;2023-05-29T09:36:41;101438.66;;;22.87;42.86
41513;BME280;27244;59.940;30.280;2023-05-29T09:39:08;101439.50;;;22.84;42.50
41513;BME280;27244;59.940;30.280;2023-05-29T09:41:41;101434.66;;;22.85;43.15
41513;BME280;27244;59.940;30.280;2023-05-29T09:44:12;101443.88;;;22.89;42.77
41513;BME280;27244;59.940;30.280;2023-05-29T09:46:40;101453.91;;;22.86;43.29
41513;BME280;27244;59.940;30.280;2023-05-29T09:49:10;101442.63;;;22.90;42.73
41513;BME280;27244;59.940;30.280;2023-05-29T09:51:40;101450.28;;;22.89;43.40
41513;BME280;27244;59.940;30.280;2023-05-29T09:54:15;101439.75;;;22.93;42.75
41513;BME280;27244;59.940;30.280;2023-05-29T09:56:43;101444.28;;;22.87;42.75
41513;BME280;27244;59.940;30.280;2023-05-29T09:59:11;101446.72;;;22.85;42.66
41513;BME280;27244;59.940;30.280;2023-05-29T10:01:40;101446.72;;;22.85;42.79
41513;BME280;27244;59.940;30.280;2023-05-29T10:04:09;101443.91;;;22.85;43.02
41513;BME280;27244;59.940;30.280;2023-05-29T10:06:41;101449.09;;;22.87;42.58
41513;BME280;27244;59.940;30.280;2023-05-29T10:09:11;101452.72;;;22.87;43.39
41513;BME280;27244;59.940;30.280;2023-05-29T10:11:41;101445.06;;;22.88;43.16
41513;BME280;27244;59.940;30.280;2023-05-29T10:14:12;101453.16;;;22.86;42.47
41513;BME280;27244;59.940;30.280;2023-05-29T10:16:42;101454.38;;;22.85;43.28
41513;BME280;27244;59.940;30.280;2023-05-29T10:19:13;101457.94;;;22.89;43.25
41513;BME280;27244;59.940;30.280;2023-05-29T10:21:44;101457.94;;;22.89;43.14
41513;BME280;27244;59.940;30.280;2023-05-29T10:24:13;101461.53;;;22.89;43.22
41513;BME280;27244;59.940;30.280;2023-05-29T10:26:43;101453.16;;;22.86;42.38
41513;BME280;27244;59.940;30.280;2023-05-29T10:29:18;101458.28;;;22.91;41.91
41513;BME280;27244;59.940;30.280;2023-05-29T10:31:54;101459.91;;;22.92;42.33
41513;BME280;27244;59.940;30.280;2023-05-29T10:34:31;101462.75;;;22.88;42.38
41513;BME280;27244;59.940;30.280;2023-05-29T10:37:07;101459.09;;;22.91;42.84
41513;BME280;27244;59.940;30.280;2023-05-29T10:39:35;101463.97;;;22.87;42.79
41513;BME280;27244;59.940;30.280;2023-05-29T10:42:40;101467.06;;;22.96;42.17
41513;BME280;27244;59.940;30.280;2023-05-29T10:45:07;101465.19;;;22.86;42.01
41513;BME280;27244;59.940;30.280;2023-05-29T10:47:34;101468.03;;;22.83;41.70
41513;BME280;27244;59.940;30.280;2023-05-29T10:50:03;101473.25;;;22.84;41.43
41513;BME280;27244;59.940;30.280;2023-05-29T10:52:32;101473.63;;;22.86;41.81
41513;BME280;27244;59.940;30.280;2023-05-29T10:54:59;101474.84;;;22.85;41.67
41513;BME280;27244;59.940;30.280;2023-05-29T10:57:29;101488.13;;;22.85;41.88
41513;BME280;27244;59.940;30.280;2023-05-29T11:00:05;101480.84;;;22.87;41.67
41513;BME280;27244;59.940;30.280;2023-05-29T11:02:39;101491.72;;;22.85;41.50
41513;BME280;27244;59.940;30.280;2023-05-29T11:05:21;101488.38;;;22.94;42.04
41513;BME280;27244;59.940;30.280;2023-05-29T11:07:56;101492.50;;;22.89;41.84
41513;BME280;27244;59.940;30.280;2023-05-29T11:10:55;101495.22;;;22.96;43.25
41513;BME280;27244;59.940;30.280;2023-05-29T11:13:27;101506.50;;;22.93;46.16
41513;BME280;27244;59.940;30.280;2023-05-29T11:16:19;101508.47;;;22.96;45.86
41513;BME280;27244;59.940;30.280;2023-05-29T11:18:47;101504.91;;;22.92;44.78
41513;BME280;27244;59.940;30.280;2023-05-29T11:21:33;101508.81;;;23.01;44.85
41513;BME280;27244;59.940;30.280;2023-05-29T11:24:03;101500.50;;;22.91;46.08
41513;BME280;27244;59.940;30.280;2023-05-29T11:26:32;101510.13;;;22.90;45.56
41513;BME280;27244;59.940;30.280;2023-05-29T11:29:01;101504.94;;;22.88;45.49
41513;BME280;27244;59.940;30.280;2023-05-29T11:31:32;101508.13;;;22.90;44.55
41513;BME280;27244;59.940;30.280;2023-05-29T11:34:01;101511.38;;;22.89;44.38
41513;BME280;27244;59.940;30.280;2023-05-29T11:36:30;101507.75;;;22.88;44.04
41513;BME280;27244;59.940;30.280;2023-05-29T11:39:05;101502.41;;;22.97;44.15
41513;BME280;27244;59.940;30.280;2023-05-29T11:41:33;101510.94;;;22.90;44.36
41513;BME280;27244;59.940;30.280;2023-05-29T11:44:01;101496.50;;;22.88;43.58
41513;BME280;27244;59.940;30.280;2023-05-29T11:46:29;101496.50;;;22.88;43.62
41513;BME280;27244;59.940;30.280;2023-05-29T11:48:58;101504.50;;;22.90;43.78
41513;BME280;27244;59.940;30.280;2023-05-29T11:51:26;101496.47;;;22.92;43.68
41513;BME280;27244;59.940;30.280;2023-05-29T11:53:53;101501.28;;;22.91;43.94
41513;BME280;27244;59.940;30.280;2023-05-29T11:56:25;101496.03;;;22.93;43.43
41513;BME280;27244;59.940;30.280;2023-05-29T11:58:54;101500.50;;;22.91;43.11
41513;BME280;27244;59.940;30.280;2023-05-29T12:01:23;101485.25;;;22.88;43.03
41513;BME280;27244;59.940;30.280;2023-05-29T12:03:51;101494.06;;;22.90;43.30
41513;BME280;27244;59.940;30.280;2023-05-29T12:06:31;101496.75;;;23.01;42.77
41513;BME280;27244;59.940;30.280;2023-05-29T12:08:59;101492.94;;;22.84;43.75
41513;BME280;27244;59.940;30.280;2023-05-29T12:11:28;101498.13;;;22.89;42.97
41513;BME280;27244;59.940;30.280;2023-05-29T12:13:56;101502.94;;;22.89;44.39
41513;BME280;27244;59.940;30.280;2023-05-29T12:16:25;101498.94;;;22.86;44.07
41513;BME280;27244;59.940;30.280;2023-05-29T12:18:53;101492.13;;;22.84;43.69
41513;BME280;27244;59.940;30.280;2023-05-29T12:21:22;101495.72;;;22.88;42.54
41513;BME280;27244;59.940;30.280;2023-05-29T12:23:51;101492.91;;;22.88;43.86
41513;BME280;27244;59.940;30.280;2023-05-29T12:26:21;101488.47;;;22.87;43.42
41513;BME280;27244;59.940;30.280;2023-05-29T12:28:50;101502.97;;;22.85;42.43
41513;BME280;27244;59.940;30.280;2023-05-29T12:31:26;101496.06;;;22.90;42.29
41513;BME280;27244;59.940;30.280;2023-05-29T12:33:59;101509.78;;;22.88;42.54
41513;BME280;27244;59.940;30.280;2023-05-29T12:36:26;101500.59;;;22.84;42.63
41513;BME280;27244;59.940;30.280;2023-05-29T12:38:53;101502.59;;;22.83;42.24
41513;BME280;27244;59.940;30.280;2023-05-29T12:41:27;101519.38;;;22.90;42.08
41513;BME280;27244;59.940;30.280;2023-05-29T12:43:56;101517.53;;;23.11;41.70
41513;BME280;27244;59.940;30.280;2023-05-29T12:46:24;101515.00;;;22.89;41.98
41513;BME280;27244;59.940;30.280;2023-05-29T12:48:53;101523.84;;;22.88;41.59
41513;BME280;27244;59.940;30.280;2023-05-29T12:51:23;101500.59;;;22.84;42.10
41513;BME280;27244;59.940;30.280;2023-05-29T12:53:50;101516.25;;;22.85;42.60
41513;BME280;27244;59.940;30.280;2023-05-29T12:56:21;101525.91;;;22.84;43.25
41513;BME280;27244;59.940;30.280;2023-05-29T12:58:50;101523.53;;;22.82;43.40
41513;BME280;27244;59.940;30.280;2023-05-29T13:01:19;101513.47;;;22.81;43.02
41513;BME280;27244;59.940;30.280;2023-05-29T13:03:46;101514.69;;;22.80;42.83
41513;BME280;27244;59.940;30.280;2023-05-29T13:06:14;101519.94;;;22.78;43.20
41513;BME280;27244;59.940;30.280;2023-05-29T13:08:41;101525.19;;;22.76;43.42